sensor_id;sensor_type;location;lat;lon;timestamp;pressure;altitude;pressure_sealevel;temperature;humidity
76424;BME280;65257;52.104;4.268;2023-05-21T00:01:37;101996.22;;;12.99;100.00
76424;BME280;65257;52.104;4.268;2023-05-21T00:04:03;101993.56;;;12.96;100.00
76424;BME280;65257;52.104;4.268;2023-05-21T00:06:30;101996.78;;;12.92;100.00
76424;BME280;65257;52.104;4.268;2023-05-21T00:08:56;101996.63;;;12.89;100.00
76424;BME280;65257;52.104;4.268;2023-05-21T00:11:22;101988.88;;;12.88;100.00
76424;BME280;65257;52.104;4.268;2023-05-21T00:13:48;102000.69;;;12.84;100.00
76424;BME280;65257;52.104;4.268;2023-05-21T00:16:13;101997.03;;;12.79;100.00
76424;BME280;65257;52.104;4.268;2023-05-21T00:18:39;101997.72;;;12.75;100.00
76424;BME280;65257;52.104;4.268;2023-05-21T00:21:04;101999.59;;;12.79;100.00
76424;BME280;65257;52.104;4.268;2023-05-21T00:23:30;101998.53;;;12.74;100.00
76424;BME280;65257;52.104;4.268;2023-05-21T00:25:57;101990.81;;;12.74;100.00
76424;BME280;65257;52.104;4.268;2023-05-21T00:28:23;101996.09;;;12.77;100.00
76424;BME280;65257;52.104;4.268;2023-05-21T00:30:49;101988.13;;;12.71;100.00
76424;BME280;65257;52.104;4.268;2023-05-21T00:33:14;101990.69;;;12.71;100.00
76424;BME280;65257;52.104;4.268;2023-05-21T00:35:40;101987.47;;;12.75;100.00
76424;BME280;65257;52.104;4.268;2023-05-21T00:38:06;101990.81;;;12.74;100.00
76424;BME280;65257;52.104;4.268;2023-05-21T00:40:33;101986.63;;;12.76;100.00
76424;BME280;65257;52.104;4.268;2023-05-21T00:42:59;101971.31;;;12.78;100.00
76424;BME280;65257;52.104;4.268;2023-05-21T00:45:24;101979.75;;;12.75;100.00
76424;BME280;65257;52.104;4.268;2023-05-21T00:47:50;101983.94;;;12.73;100.00
76424;BME280;65257;52.104;4.268;2023-05-21T00:50:19;101982.19;;;12.72;100.00
76424;BME280;65257;52.104;4.268;2023-05-21T00:52:45;101982.47;;;12.78;100.00
76424;BME280;65257;52.104;4.268;2023-05-21T00:55:13;101983.13;;;12.74;100.00
76424;BME280;65257;52.104;4.268;2023-05-21T00:57:39;101985.69;;;12.74;100.00
76424;BME280;65257;52.104;4.268;2023-05-21T01:00:06;101985.44;;;12.68;100.00
76424;BME280;65257;52.104;4.268;2023-05-21T01:02:36;101982.97;;;12.71;100.00
76424;BME280;65257;52.104;4.268;2023-05-21T01:05:02;101975.91;;;12.66;100.00
76424;BME280;65257;52.104;4.268;2023-05-21T01:07:36;101971.75;;;12.69;100.00
76424;BME280;65257;52.104;4.268;2023-05-21T01:10:04;101976.91;;;12.69;100.00
76424;BME280;65257;52.104;4.268;2023-05-21T01:12:32;101973.53;;;12.70;100.00
76424;BME280;65257;52.104;4.268;2023-05-21T01:15:03;101970.09;;;12.70;100.00
76424;BME280;65257;52.104;4.268;2023-05-21T01:17:29;101977.03;;;12.72;100.00
76424;BME280;65257;52.104;4.268;2023-05-21T01:19:59;101975.28;;;12.71;100.00
76424;BME280;65257;52.104;4.268;2023-05-21T01:22:25;101970.88;;;12.69;100.00
76424;BME280;65257;52.104;4.268;2023-05-21T01:24:53;101969.88;;;12.65;100.00
76424;BME280;65257;52.104;4.268;2023-05-21T01:27:20;101966.50;;;12.66;100.00
76424;BME280;65257;52.104;4.268;2023-05-21T01:29:45;101973.25;;;12.64;100.00
76424;BME280;65257;52.104;4.268;2023-05-21T01:32:25;101978.38;;;12.64;100.00
76424;BME280;65257;52.104;4.268;2023-05-21T01:34:59;101972.38;;;12.64;100.00
76424;BME280;65257;52.104;4.268;2023-05-21T01:40:10;101971.22;;;12.57;100.00
76424;BME280;65257;52.104;4.268;2023-05-21T01:42:41;101974.81;;;12.61;100.00
76424;BME280;65257;52.104;4.268;2023-05-21T01:45:09;101970.47;;;12.60;100.00
76424;BME280;65257;52.104;4.268;2023-05-21T01:47:35;101973.00;;;12.58;100.00
76424;BME280;65257;52.104;4.268;2023-05-21T01:50:02;101972.75;;;12.53;100.00
76424;BME280;65257;52.104;4.268;2023-05-21T01:52:29;101971.97;;;12.54;100.00
76424;BME280;65257;52.104;4.268;2023-05-21T01:54:56;101965.94;;;12.54;100.00
76424;BME280;65257;52.104;4.268;2023-05-21T01:57:21;101975.41;;;12.55;100.00
76424;BME280;65257;52.104;4.268;2023-05-21T01:59:47;101974.72;;;12.59;100.00
76424;BME280;65257;52.104;4.268;2023-05-21T02:02:12;101976.34;;;12.57;100.00
76424;BME280;65257;52.104;4.268;2023-05-21T02:04:38;101972.91;;;12.56;100.00
76424;BME280;65257;52.104;4.268;2023-05-21T02:07:06;101975.47;;;12.56;100.00
76424;BME280;65257;52.104;4.268;2023-05-21T02:09:31;101973.00;;;12.58;100.00
76424;BME280;65257;52.104;4.268;2023-05-21T02:11:57;101978.38;;;12.64;100.00
76424;BME280;65257;52.104;4.268;2023-05-21T02:14:22;101982.03;;;12.69;100.00
76424;BME280;65257;52.104;4.268;2023-05-21T02:16:49;101981.50;;;12.76;100.00
76424;BME280;65257;52.104;4.268;2023-05-21T02:19:17;101981.56;;;12.78;100.00
76424;BME280;65257;52.104;4.268;2023-05-21T02:21:42;101980.88;;;12.82;100.00
76424;BME280;65257;52.104;4.268;2023-05-21T02:24:07;101979.22;;;12.82;100.00
76424;BME280;65257;52.104;4.268;2023-05-21T02:26:33;101980.38;;;12.89;100.00
76424;BME280;65257;52.104;4.268;2023-05-21T02:28:59;101979.63;;;12.91;100.00
76424;BME280;65257;52.104;4.268;2023-05-21T02:31:24;101986.63;;;12.95;100.00
76424;BME280;65257;52.104;4.268;2023-05-21T02:33:50;101972.84;;;12.93;100.00
76424;BME280;65257;52.104;4.268;2023-05-21T02:36:15;101981.50;;;12.95;100.00
76424;BME280;65257;52.104;4.268;2023-05-21T02:38:43;101974.59;;;12.94;100.00
76424;BME280;65257;52.104;4.268;2023-05-21T02:41:12;101976.50;;;12.98;100.00
76424;BME280;65257;52.104;4.268;2023-05-21T02:43:38;101974.88;;;13.00;100.00
76424;BME280;65257;52.104;4.268;2023-05-21T02:46:04;101974.88;;;13.00;100.00
76424;BME280;65257;52.104;4.268;2023-05-21T02:48:30;101975.94;;;13.05;100.00
76424;BME280;65257;52.104;4.268;2023-05-21T02:50:55;101969.13;;;13.06;100.00
76424;BME280;65257;52.104;4.268;2023-05-21T02:53:21;101977.06;;;13.10;100.00
76424;BME280;65257;52.104;4.268;2023-05-21T02:55:46;101974.63;;;13.13;100.00
76424;BME280;65257;52.104;4.268;2023-05-21T02:58:12;101969.28;;;13.09;100.00
76424;BME280;65257;52.104;4.268;2023-05-21T03:00:39;101960.41;;;13.02;100.00
76424;BME280;65257;52.104;4.268;2023-05-21T03:03:04;101966.63;;;13.07;100.00
76424;BME280;65257;52.104;4.268;2023-05-21T03:05:30;101973.56;;;13.08;100.00
76424;BME280;65257;52.104;4.268;2023-05-21T03:07:55;101965.84;;;13.08;100.00
76424;BME280;65257;52.104;4.268;2023-05-21T03:10:24;101966.72;;;13.09;100.00
76424;BME280;65257;52.104;4.268;2023-05-21T03:12:50;101965.03;;;13.09;100.00
76424;BME280;65257;52.104;4.268;2023-05-21T03:15:16;101965.03;;;13.09;100.00
76424;BME280;65257;52.104;4.268;2023-05-21T03:17:42;101963.41;;;13.11;100.00
76424;BME280;65257;52.104;4.268;2023-05-21T03:20:08;101961.78;;;13.13;100.00
76424;BME280;65257;52.104;4.268;2023-05-21T03:22:41;101963.41;;;13.11;100.00
76424;BME280;65257;52.104;4.268;2023-05-21T03:25:07;101965.97;;;13.11;100.00
76424;BME280;65257;52.104;4.268;2023-05-21T03:27:33;101963.53;;;13.14;100.00
76424;BME280;65257;52.104;4.268;2023-05-21T03:29:58;101961.78;;;13.13;100.00
76424;BME280;65257;52.104;4.268;2023-05-21T03:32:24;101955.84;;;13.14;100.00
76424;BME280;65257;52.104;4.268;2023-05-21T03:34:49;101954.03;;;13.12;100.00
76424;BME280;65257;52.104;4.268;2023-05-21T03:37:15;101957.56;;;13.15;100.00
76424;BME280;65257;52.104;4.268;2023-05-21T03:39:40;101954.13;;;13.15;100.00
76424;BME280;65257;52.104;4.268;2023-05-21T03:42:05;101953.38;;;13.17;100.00
76424;BME280;65257;52.104;4.268;2023-05-21T03:44:31;101955.13;;;13.18;100.00
76424;BME280;65257;52.104;4.268;2023-05-21T03:46:57;101954.66;;;13.27;100.00
76424;BME280;65257;52.104;4.268;2023-05-21T03:49:24;101951.03;;;13.22;100.00
76424;BME280;65257;52.104;4.268;2023-05-21T03:51:50;101951.78;;;13.20;100.00
76424;BME280;65257;52.104;4.268;2023-05-21T03:54:15;101957.00;;;13.23;100.00
76424;BME280;65257;52.104;4.268;2023-05-21T03:56:41;101952.00;;;13.26;100.00
76424;BME280;65257;52.104;4.268;2023-05-21T03:59:06;101956.34;;;13.27;100.00
76424;BME280;65257;52.104;4.268;2023-05-21T04:01:32;101954.75;;;13.30;100.00
76424;BME280;65257;52.104;4.268;2023-05-21T04:03:57;101959.06;;;13.30;100.00
76424;BME280;65257;52.104;4.268;2023-05-21T04:06:23;101959.06;;;13.30;100.00
76424;BME280;65257;52.104;4.268;2023-05-21T04:08:48;101965.94;;;13.31;100.00
76424;BME280;65257;52.104;4.268;2023-05-21T04:11:15;101961.63;;;13.30;100.00
76424;BME280;65257;52.104;4.268;2023-05-21T04:13:41;101957.56;;;13.35;100.00
76424;BME280;65257;52.104;4.268;2023-05-21T04:16:06;101967.97;;;13.38;100.00
76424;BME280;65257;52.104;4.268;2023-05-21T04:18:35;101966.19;;;13.37;100.00
76424;BME280;65257;52.104;4.268;2023-05-21T04:21:00;101956.66;;;13.34;100.00
76424;BME280;65257;52.104;4.268;2023-05-21T04:23:26;101953.38;;;13.38;100.00
76424;BME280;65257;52.104;4.268;2023-05-21T04:25:52;101966.47;;;13.43;100.00
76424;BME280;65257;52.104;4.268;2023-05-21T04:28:18;101971.59;;;13.43;100.00
76424;BME280;65257;52.104;4.268;2023-05-21T04:30:45;101963.81;;;13.41;100.00
76424;BME280;65257;52.104;4.268;2023-05-21T04:33:11;101963.66;;;13.38;100.00
76424;BME280;65257;52.104;4.268;2023-05-21T04:35:36;101969.84;;;13.42;100.00
76424;BME280;65257;52.104;4.268;2023-05-21T04:38:02;101973.22;;;13.41;100.00
76424;BME280;65257;52.104;4.268;2023-05-21T04:40:29;101970.78;;;13.44;100.00
76424;BME280;65257;52.104;4.268;2023-05-21T04:42:55;101967.25;;;13.42;100.00
76424;BME280;65257;52.104;4.268;2023-05-21T04:45:20;101967.25;;;13.42;100.00
76424;BME280;65257;52.104;4.268;2023-05-21T04:47:48;101968.06;;;13.41;100.00
76424;BME280;65257;52.104;4.268;2023-05-21T04:50:14;101967.97;;;13.38;100.00
76424;BME280;65257;52.104;4.268;2023-05-21T04:52:39;101964.69;;;13.42;100.00
76424;BME280;65257;52.104;4.268;2023-05-21T04:55:06;101965.56;;;13.42;100.00
76424;BME280;65257;52.104;4.268;2023-05-21T04:57:32;101964.13;;;13.49;100.00
76424;BME280;65257;52.104;4.268;2023-05-21T04:59:57;101964.38;;;13.55;100.00
76424;BME280;65257;52.104;4.268;2023-05-21T05:02:22;101962.44;;;13.49;100.00
76424;BME280;65257;52.104;4.268;2023-05-21T05:04:48;101958.03;;;13.47;100.00
76424;BME280;65257;52.104;4.268;2023-05-21T05:07:13;101955.53;;;13.48;100.00
76424;BME280;65257;52.104;4.268;2023-05-21T05:09:39;101952.91;;;13.47;100.00
76424;BME280;65257;52.104;4.268;2023-05-21T05:12:05;101946.00;;;13.46;100.00
76424;BME280;65257;52.104;4.268;2023-05-21T05:14:31;101954.03;;;13.53;100.00
76424;BME280;65257;52.104;4.268;2023-05-21T05:16:56;101948.78;;;13.50;100.00
76424;BME280;65257;52.104;4.268;2023-05-21T05:19:25;101947.06;;;13.51;100.00
76424;BME280;65257;52.104;4.268;2023-05-21T05:21:50;101946.38;;;13.55;100.00
76424;BME280;65257;52.104;4.268;2023-05-21T05:24:16;101944.75;;;13.57;100.00
76424;BME280;65257;52.104;4.268;2023-05-21T05:26:41;101948.63;;;13.68;100.00
76424;BME280;65257;52.104;4.268;2023-05-21T05:29:07;101943.66;;;13.72;100.00
76424;BME280;65257;52.104;4.268;2023-05-21T05:31:32;101943.03;;;13.78;100.00
76424;BME280;65257;52.104;4.268;2023-05-21T05:33:58;101938.81;;;13.80;100.00
76424;BME280;65257;52.104;4.268;2023-05-21T05:36:23;101944.34;;;13.89;100.00
76424;BME280;65257;52.104;4.268;2023-05-21T05:38:49;101944.69;;;13.98;100.00
76424;BME280;65257;52.104;4.268;2023-05-21T05:41:14;101943.31;;;14.06;100.00
76424;BME280;65257;52.104;4.268;2023-05-21T05:43:39;101947.75;;;14.10;100.00
76424;BME280;65257;52.104;4.268;2023-05-21T05:46:05;101934.19;;;14.14;100.00
76424;BME280;65257;52.104;4.268;2023-05-21T05:48:30;101936.75;;;14.14;100.00
76424;BME280;65257;52.104;4.268;2023-05-21T05:50:56;101938.69;;;14.20;100.00
76424;BME280;65257;52.104;4.268;2023-05-21T05:53:22;101935.44;;;14.25;100.00
76424;BME280;65257;52.104;4.268;2023-05-21T05:55:47;101929.44;;;14.25;100.00
76424;BME280;65257;52.104;4.268;2023-05-21T05:58:13;101929.59;;;14.29;100.00
76424;BME280;65257;52.104;4.268;2023-05-21T06:00:38;101925.53;;;14.34;100.00
76424;BME280;65257;52.104;4.268;2023-05-21T06:03:04;101929.03;;;14.36;100.00
76424;BME280;65257;52.104;4.268;2023-05-21T06:05:29;101922.69;;;14.28;100.00
76424;BME280;65257;52.104;4.268;2023-05-21T06:07:55;101923.53;;;14.27;100.00
76424;BME280;65257;52.104;4.268;2023-05-21T06:10:20;101931.06;;;14.23;100.00
76424;BME280;65257;52.104;4.268;2023-05-21T06:12:46;101926.78;;;14.23;100.00
76424;BME280;65257;52.104;4.268;2023-05-21T06:15:11;101937.50;;;14.32;100.00
76424;BME280;65257;52.104;4.268;2023-05-21T06:17:39;101928.03;;;14.33;100.00
76424;BME280;65257;52.104;4.268;2023-05-21T06:20:05;101934.19;;;14.36;100.00
76424;BME280;65257;52.104;4.268;2023-05-21T06:22:30;101934.31;;;14.39;100.00
76424;BME280;65257;52.104;4.268;2023-05-21T06:24:56;101942.97;;;14.41;100.00
76424;BME280;65257;52.104;4.268;2023-05-21T06:27:21;101935.25;;;14.41;100.00
76424;BME280;65257;52.104;4.268;2023-05-21T06:29:46;101931.28;;;14.51;100.00
76424;BME280;65257;52.104;4.268;2023-05-21T06:32:12;101933.34;;;14.60;100.00
76424;BME280;65257;52.104;4.268;2023-05-21T06:34:37;101932.03;;;14.71;100.00
76424;BME280;65257;52.104;4.268;2023-05-21T06:37:03;101930.91;;;14.88;100.00
76424;BME280;65257;52.104;4.268;2023-05-21T06:39:28;101931.34;;;15.00;100.00
76424;BME280;65257;52.104;4.268;2023-05-21T06:41:53;101928.06;;;15.04;100.00
76424;BME280;65257;52.104;4.268;2023-05-21T06:44:19;101921.47;;;15.12;100.00
76424;BME280;65257;52.104;4.268;2023-05-21T06:46:44;101926.16;;;15.24;100.00
76424;BME280;65257;52.104;4.268;2023-05-21T06:49:10;101928.31;;;15.37;100.00
76424;BME280;65257;52.104;4.268;2023-05-21T06:51:37;101929.63;;;15.49;100.00
76424;BME280;65257;52.104;4.268;2023-05-21T06:54:03;101930.63;;;15.29;100.00
76424;BME280;65257;52.104;4.268;2023-05-21T06:56:29;101925.47;;;15.29;100.00
76424;BME280;65257;52.104;4.268;2023-05-21T06:58:54;101927.44;;;15.36;100.00
76424;BME280;65257;52.104;4.268;2023-05-21T07:01:20;101921.75;;;15.21;100.00
76424;BME280;65257;52.104;4.268;2023-05-21T07:03:46;101927.84;;;15.23;100.00
76424;BME280;65257;52.104;4.268;2023-05-21T07:06:12;101937.84;;;15.14;100.00
76424;BME280;65257;52.104;4.268;2023-05-21T07:08:38;101931.28;;;14.98;100.00
76424;BME280;65257;52.104;4.268;2023-05-21T07:11:03;101939.25;;;15.04;100.00
76424;BME280;65257;52.104;4.268;2023-05-21T07:13:29;101939.09;;;15.25;100.00
76424;BME280;65257;52.104;4.268;2023-05-21T07:15:54;101934.53;;;15.18;100.00
76424;BME280;65257;52.104;4.268;2023-05-21T07:18:20;101934.72;;;15.23;100.00
76424;BME280;65257;52.104;4.268;2023-05-21T07:20:45;101932.81;;;15.17;100.00
76424;BME280;65257;52.104;4.268;2023-05-21T07:23:11;101933.84;;;15.22;100.00
76424;BME280;65257;52.104;4.268;2023-05-21T07:25:36;101940.25;;;15.58;100.00
76424;BME280;65257;52.104;4.268;2023-05-21T07:28:02;101928.41;;;15.40;100.00
76424;BME280;65257;52.104;4.268;2023-05-21T07:30:27;101942.41;;;15.46;100.00
76424;BME280;65257;52.104;4.268;2023-05-21T07:32:53;101941.97;;;15.34;100.00
76424;BME280;65257;52.104;4.268;2023-05-21T07:35:18;101944.09;;;15.46;100.00
76424;BME280;65257;52.104;4.268;2023-05-21T07:37:44;101934.59;;;15.45;100.00
76424;BME280;65257;52.104;4.268;2023-05-21T07:40:11;101939.34;;;15.85;100.00
76424;BME280;65257;52.104;4.268;2023-05-21T07:42:36;101932.38;;;16.09;100.00
76424;BME280;65257;52.104;4.268;2023-05-21T07:45:02;101923.41;;;16.26;100.00
76424;BME280;65257;52.104;4.268;2023-05-21T07:47:29;101935.31;;;16.21;100.00
76424;BME280;65257;52.104;4.268;2023-05-21T07:49:54;101932.81;;;16.24;100.00
76424;BME280;65257;52.104;4.268;2023-05-21T07:52:20;101927.00;;;16.31;100.00
76424;BME280;65257;52.104;4.268;2023-05-21T07:54:45;101932.94;;;16.28;100.00
76424;BME280;65257;52.104;4.268;2023-05-21T07:57:11;101938.75;;;16.20;100.00
76424;BME280;65257;52.104;4.268;2023-05-21T07:59:36;101937.56;;;16.10;100.00
76424;BME280;65257;52.104;4.268;2023-05-21T08:02:02;101929.69;;;16.06;100.00
76424;BME280;65257;52.104;4.268;2023-05-21T08:04:27;101932.34;;;16.07;100.00
76424;BME280;65257;52.104;4.268;2023-05-21T08:06:52;101941.22;;;15.89;100.00
76424;BME280;65257;52.104;4.268;2023-05-21T08:09:18;101933.34;;;15.84;100.00
76424;BME280;65257;52.104;4.268;2023-05-21T08:11:44;101935.06;;;16.12;100.00
76424;BME280;65257;52.104;4.268;2023-05-21T08:14:10;101933.03;;;16.02;100.00
76424;BME280;65257;52.104;4.268;2023-05-21T08:16:35;101949.59;;;15.82;100.00
76424;BME280;65257;52.104;4.268;2023-05-21T08:19:01;101932.72;;;15.93;100.00
76424;BME280;65257;52.104;4.268;2023-05-21T08:21:27;101929.50;;;16.00;100.00
76424;BME280;65257;52.104;4.268;2023-05-21T08:23:52;101942.56;;;15.78;100.00
76424;BME280;65257;52.104;4.268;2023-05-21T08:26:18;101935.72;;;16.06;100.00
76424;BME280;65257;52.104;4.268;2023-05-21T08:28:43;101931.03;;;16.21;100.00
76424;BME280;65257;52.104;4.268;2023-05-21T08:31:09;101932.00;;;16.25;100.00
76424;BME280;65257;52.104;4.268;2023-05-21T08:33:36;101935.28;;;16.49;100.00
76424;BME280;65257;52.104;4.268;2023-05-21T08:36:04;101937.44;;;16.34;100.00
76424;BME280;65257;52.104;4.268;2023-05-21T08:38:29;101936.72;;;16.10;100.00
76424;BME280;65257;52.104;4.268;2023-05-21T08:40:55;101932.84;;;16.25;100.00
76424;BME280;65257;52.104;4.268;2023-05-21T08:43:22;101926.28;;;16.07;100.00
76424;BME280;65257;52.104;4.268;2023-05-21T08:45:53;101929.03;;;16.13;100.00
76424;BME280;65257;52.104;4.268;2023-05-21T08:48:21;101923.84;;;16.41;100.00
76424;BME280;65257;52.104;4.268;2023-05-21T08:50:49;101927.66;;;16.52;100.00
76424;BME280;65257;52.104;4.268;2023-05-21T08:53:15;101925.78;;;16.48;100.00
76424;BME280;65257;52.104;4.268;2023-05-21T08:55:42;101925.69;;;16.45;100.00
76424;BME280;65257;52.104;4.268;2023-05-21T08:58:08;101929.75;;;16.65;100.00
76424;BME280;65257;52.104;4.268;2023-05-21T09:00:34;101926.75;;;16.81;100.00
76424;BME280;65257;52.104;4.268;2023-05-21T09:03:03;101919.50;;;16.68;100.00
76424;BME280;65257;52.104;4.268;2023-05-21T09:05:33;101910.56;;;16.88;100.00
76424;BME280;65257;52.104;4.268;2023-05-21T09:08:08;101910.50;;;16.85;100.00
76424;BME280;65257;52.104;4.268;2023-05-21T09:10:38;101907.03;;;16.85;100.00
76424;BME280;65257;52.104;4.268;2023-05-21T09:13:04;101900.75;;;17.08;100.00
76424;BME280;65257;52.104;4.268;2023-05-21T09:15:32;101902.16;;;17.30;100.00
76424;BME280;65257;52.104;4.268;2023-05-21T09:17:57;101906.97;;;17.15;100.00
76424;BME280;65257;52.104;4.268;2023-05-21T09:20:24;101901.66;;;17.44;100.00
76424;BME280;65257;52.104;4.268;2023-05-21T09:22:51;101898.66;;;17.99;100.00
76424;BME280;65257;52.104;4.268;2023-05-21T09:25:22;101890.44;;;18.19;100.00
76424;BME280;65257;52.104;4.268;2023-05-21T09:27:48;101892.38;;;18.29;100.00
76424;BME280;65257;52.104;4.268;2023-05-21T09:30:15;101895.88;;;18.31;100.00
76424;BME280;65257;52.104;4.268;2023-05-21T09:32:44;101894.72;;;18.18;100.00
76424;BME280;65257;52.104;4.268;2023-05-21T09:35:12;101888.94;;;18.30;100.00
76424;BME280;65257;52.104;4.268;2023-05-21T09:37:39;101883.81;;;18.74;100.00
76424;BME280;65257;52.104;4.268;2023-05-21T09:40:15;101892.03;;;19.00;100.00
76424;BME280;65257;52.104;4.268;2023-05-21T09:42:51;101888.38;;;18.88;100.00
76424;BME280;65257;52.104;4.268;2023-05-21T09:45:18;101885.56;;;18.75;100.00
76424;BME280;65257;52.104;4.268;2023-05-21T09:47:46;101890.94;;;18.43;100.00
76424;BME280;65257;52.104;4.268;2023-05-21T09:50:12;101900.34;;;17.97;100.00
76424;BME280;65257;52.104;4.268;2023-05-21T09:52:38;101886.69;;;18.04;100.00
76424;BME280;65257;52.104;4.268;2023-05-21T09:55:05;101893.97;;;18.22;100.00
76424;BME280;65257;52.104;4.268;2023-05-21T09:57:31;101893.72;;;18.52;100.00
76424;BME280;65257;52.104;4.268;2023-05-21T09:59:57;101887.59;;;18.47;100.00
76424;BME280;65257;52.104;4.268;2023-05-21T10:02:23;101887.06;;;18.23;100.00
76424;BME280;65257;52.104;4.268;2023-05-21T10:04:51;101895.44;;;18.09;100.00
76424;BME280;65257;52.104;4.268;2023-05-21T10:07:19;101893.06;;;18.20;100.00
76424;BME280;65257;52.104;4.268;2023-05-21T10:09:52;101889.34;;;18.07;100.00
76424;BME280;65257;52.104;4.268;2023-05-21T10:12:20;101884.94;;;18.03;100.00
76424;BME280;65257;52.104;4.268;2023-05-21T10:14:53;101890.91;;;17.99;100.00
76424;BME280;65257;52.104;4.268;2023-05-21T10:17:19;101880.50;;;18.40;100.00
76424;BME280;65257;52.104;4.268;2023-05-21T10:19:46;101882.94;;;18.31;100.00
76424;BME280;65257;52.104;4.268;2023-05-21T10:22:13;101884.94;;;18.45;100.00
76424;BME280;65257;52.104;4.268;2023-05-21T10:24:39;101870.69;;;18.67;100.00
76424;BME280;65257;52.104;4.268;2023-05-21T10:27:06;101870.59;;;18.61;100.00
76424;BME280;65257;52.104;4.268;2023-05-21T10:29:32;101867.41;;;18.32;100.00
76424;BME280;65257;52.104;4.268;2023-05-21T10:32:00;101871.78;;;18.36;100.00
76424;BME280;65257;52.104;4.268;2023-05-21T10:34:26;101876.66;;;18.20;100.00
76424;BME280;65257;52.104;4.268;2023-05-21T10:36:53;101876.13;;;18.36;100.00
76424;BME280;65257;52.104;4.268;2023-05-21T10:39:20;101876.13;;;18.79;100.00
76424;BME280;65257;52.104;4.268;2023-05-21T10:44:56;101870.13;;;18.40;100.00
76424;BME280;65257;52.104;4.268;2023-05-21T10:50:07;101878.34;;;17.79;100.00
76424;BME280;65257;52.104;4.268;2023-05-21T11:00:10;101872.47;;;17.87;100.00
76424;BME280;65257;52.104;4.268;2023-05-21T11:02:37;101866.94;;;18.09;100.00
76424;BME280;65257;52.104;4.268;2023-05-21T11:05:03;101865.47;;;18.24;100.00
76424;BME280;65257;52.104;4.268;2023-05-21T11:07:51;101864.94;;;18.82;100.00
76424;BME280;65257;52.104;4.268;2023-05-21T11:10:36;101854.75;;;18.92;100.00
76424;BME280;65257;52.104;4.268;2023-05-21T11:13:13;101849.16;;;19.20;100.00
76424;BME280;65257;52.104;4.268;2023-05-21T11:18:23;101843.09;;;19.20;100.00
76424;BME280;65257;52.104;4.268;2023-05-21T11:21:20;101838.81;;;19.23;100.00
76424;BME280;65257;52.104;4.268;2023-05-21T11:26:15;101843.47;;;19.43;100.00
76424;BME280;65257;52.104;4.268;2023-05-21T11:28:41;101840.63;;;19.27;100.00
76424;BME280;65257;52.104;4.268;2023-05-21T11:31:25;101831.00;;;19.20;100.00
76424;BME280;65257;52.104;4.268;2023-05-21T11:34:23;101833.25;;;19.53;100.00
76424;BME280;65257;52.104;4.268;2023-05-21T11:39:50;101834.00;;;19.45;100.00
76424;BME280;65257;52.104;4.268;2023-05-21T11:44:58;101820.84;;;19.35;100.00
76424;BME280;65257;52.104;4.268;2023-05-21T11:47:24;101814.63;;;19.24;100.00
76424;BME280;65257;52.104;4.268;2023-05-21T11:49:54;101819.81;;;19.24;100.00
76424;BME280;65257;52.104;4.268;2023-05-21T11:52:21;101816.78;;;18.97;100.00
76424;BME280;65257;52.104;4.268;2023-05-21T11:54:48;101812.19;;;19.33;100.00
76424;BME280;65257;52.104;4.268;2023-05-21T11:57:21;101814.09;;;19.47;100.00
76424;BME280;65257;52.104;4.268;2023-05-21T11:59:50;101815.09;;;19.55;100.00
76424;BME280;65257;52.104;4.268;2023-05-21T12:02:18;101804.91;;;19.67;100.00
76424;BME280;65257;52.104;4.268;2023-05-21T12:04:48;101801.53;;;19.18;100.00
76424;BME280;65257;52.104;4.268;2023-05-21T12:07:15;101803.91;;;19.03;100.00
76424;BME280;65257;52.104;4.268;2023-05-21T12:09:50;101805.16;;;18.74;100.00
76424;BME280;65257;52.104;4.268;2023-05-21T12:12:18;101808.84;;;18.88;100.00
76424;BME280;65257;52.104;4.268;2023-05-21T12:14:45;101801.13;;;19.44;100.00
76424;BME280;65257;52.104;4.268;2023-05-21T12:17:12;101804.84;;;19.64;100.00
76424;BME280;65257;52.104;4.268;2023-05-21T12:19:40;101807.81;;;19.32;100.00
76424;BME280;65257;52.104;4.268;2023-05-21T12:22:06;101802.94;;;18.97;100.00
76424;BME280;65257;52.104;4.268;2023-05-21T12:24:33;101804.53;;;18.87;100.00
76424;BME280;65257;52.104;4.268;2023-05-21T12:26:59;101796.69;;;18.84;100.00
76424;BME280;65257;52.104;4.268;2023-05-21T12:29:29;101797.25;;;18.66;100.00
76424;BME280;65257;52.104;4.268;2023-05-21T12:31:58;101799.97;;;18.74;100.00
76424;BME280;65257;52.104;4.268;2023-05-21T12:34:44;101804.38;;;18.33;100.00
76424;BME280;65257;52.104;4.268;2023-05-21T12:37:17;101805.13;;;18.28;100.00
76424;BME280;65257;52.104;4.268;2023-05-21T12:39:44;101800.03;;;17.90;100.00
76424;BME280;65257;52.104;4.268;2023-05-21T12:42:11;101799.38;;;17.99;100.00
76424;BME280;65257;52.104;4.268;2023-05-21T12:44:44;101790.72;;;17.58;100.00
76424;BME280;65257;52.104;4.268;2023-05-21T12:47:11;101800.78;;;17.46;100.00
76424;BME280;65257;52.104;4.268;2023-05-21T12:49:41;101795.72;;;17.52;100.00
76424;BME280;65257;52.104;4.268;2023-05-21T12:52:08;101802.44;;;17.44;100.00
76424;BME280;65257;52.104;4.268;2023-05-21T12:54:38;101801.16;;;17.61;100.00
76424;BME280;65257;52.104;4.268;2023-05-21T12:57:13;101806.81;;;17.46;100.00
76424;BME280;65257;52.104;4.268;2023-05-21T13:02:38;101812.38;;;17.26;100.00
76424;BME280;65257;52.104;4.268;2023-05-21T13:05:08;101816.25;;;17.07;100.00
76424;BME280;65257;52.104;4.268;2023-05-21T13:07:36;101809.59;;;17.17;100.00
76424;BME280;65257;52.104;4.268;2023-05-21T13:10:03;101805.22;;;17.16;100.00